createdAt,value
2016-05-05T00:00:10.961Z,74.3
2016-05-05T00:01:10.964Z,74.3
2016-05-05T00:02:10.951Z,73.91
2016-05-05T00:03:10.937Z,73.53
2016-05-05T00:04:10.769Z,73.53
2016-05-05T00:05:10.911Z,73.53
2016-05-05T00:06:10.727Z,73.43
2016-05-05T00:07:10.886Z,73.72
2016-05-05T00:08:10.857Z,73.33
2016-05-05T00:09:10.845Z,73.14
2016-05-05T00:10:10.675Z,73.14
2016-05-05T00:11:10.819Z,73.43
2016-05-05T00:12:10.805Z,73.24
2016-05-05T00:13:10.808Z,73.33
2016-05-05T00:14:10.624Z,72.85
2016-05-05T00:15:10.751Z,72.66
2016-05-05T00:16:10.738Z,72.75
2016-05-05T00:17:10.724Z,73.14
2016-05-05T00:18:10.713Z,72.56
2016-05-05T00:19:10.715Z,73.14
2016-05-05T00:20:10.687Z,73.24
2016-05-05T00:21:10.674Z,73.24
2016-05-05T00:22:10.645Z,73.05
2016-05-05T00:23:10.648Z,73.33
2016-05-05T00:24:10.635Z,72.85
2016-05-05T00:25:10.621Z,72.95
2016-05-05T00:26:10.593Z,72.18
2016-05-05T00:27:10.596Z,72.08
2016-05-05T00:28:10.583Z,72.47
2016-05-05T00:29:10.554Z,72.18
2016-05-05T00:30:10.541Z,72.75
2016-05-05T00:31:10.373Z,71.98
2016-05-05T00:32:10.515Z,72.47
2016-05-05T00:33:10.502Z,71.6
2016-05-05T00:34:10.475Z,72.18
2016-05-05T00:35:10.461Z,72.37
2016-05-05T00:36:10.448Z,72.33
2016-05-05T00:37:10.451Z,72.14
2016-05-05T00:38:10.438Z,71.85
2016-05-05T00:39:10.784Z,71.6
2016-05-05T00:40:10.396Z,72.08
2016-05-05T00:41:10.399Z,71.7
2016-05-05T00:42:10.355Z,71.79
2016-05-05T00:43:10.358Z,71.7
2016-05-05T00:44:10.344Z,71.5
2016-05-05T00:45:10.332Z,72.05
2016-05-05T00:46:10.318Z,72.37
2016-05-05T00:47:10.291Z,72.47
2016-05-05T00:48:10.137Z,73.49
2016-05-05T00:49:10.124Z,73.1
2016-05-05T00:50:10.251Z,73.78
2016-05-05T00:51:10.239Z,73.68
2016-05-05T00:52:10.226Z,73.3
2016-05-05T00:53:10.213Z,73.3
2016-05-05T00:54:10.184Z,73.1
2016-05-05T00:55:10.187Z,73.39
2016-05-05T00:56:10.174Z,74.36
2016-05-05T00:57:09.990Z,74.26
2016-05-05T00:58:10.133Z,74.07
2016-05-05T00:59:09.963Z,74.07
2016-05-05T01:00:10.106Z,74.45
2016-05-05T01:01:10.093Z,74.16
2016-05-05T01:02:10.081Z,73.97
2016-05-05T01:03:10.067Z,75.03
2016-05-05T01:04:10.055Z,75.23
2016-05-05T01:05:09.886Z,75.19
2016-05-05T01:06:10.029Z,74.84
2016-05-05T01:07:10.016Z,74.93
2016-05-05T01:08:10.003Z,75.51
2016-05-05T01:09:09.989Z,75.42
2016-05-05T01:10:09.977Z,75.32
2016-05-05T01:11:09.949Z,76.15
2016-05-05T01:12:09.935Z,75.96
2016-05-05T01:13:09.922Z,75.57
2016-05-05T01:14:09.910Z,75.57
2016-05-05T01:15:09.897Z,75.57
2016-05-05T01:16:09.884Z,76.06
2016-05-05T01:17:09.855Z,76.06
2016-05-05T01:18:09.858Z,76.06
2016-05-05T01:19:09.829Z,75.57
2016-05-05T01:20:09.660Z,75.57
2016-05-05T01:21:09.819Z,75.76
2016-05-05T01:22:09.791Z,76.34
2016-05-05T01:23:09.762Z,76.15
2016-05-05T01:24:09.780Z,76.53
2016-05-05T01:25:09.596Z,76.25
2016-05-05T01:26:09.583Z,76.06
2016-05-05T01:27:09.710Z,76.06
2016-05-05T01:28:09.698Z,75.96
2016-05-05T01:29:09.684Z,76.44
2016-05-05T01:30:09.671Z,76.06
2016-05-05T01:31:09.659Z,76.25
2016-05-05T01:32:09.646Z,76.15
2016-05-05T01:33:09.461Z,75.76
2016-05-05T01:34:09.620Z,75.28
2016-05-05T01:35:09.451Z,74.93
2016-05-05T01:36:09.579Z,74.55
2016-05-05T01:37:09.565Z,74.84
2016-05-05T01:38:09.553Z,75.23
2016-05-05T01:39:10.977Z,75.57
2016-05-05T01:40:09.527Z,76.06
2016-05-05T01:41:09.498Z,75.86
2016-05-05T01:42:09.501Z,76.44
2016-05-05T01:43:09.488Z,75.67
2016-05-05T01:44:09.334Z,75.76
2016-05-05T01:45:09.462Z,75.28
2016-05-05T01:46:09.433Z,76.34
2016-05-05T01:47:09.420Z,75.96
2016-05-05T01:48:09.407Z,75.76
2016-05-05T01:49:09.394Z,75.38
2016-05-05T01:50:09.382Z,75.38
2016-05-05T01:51:09.353Z,75.57
2016-05-05T01:52:09.361Z,75.76
2016-05-05T01:53:09.250Z,75.86
2016-05-05T01:54:09.280Z,75.76
2016-05-05T01:55:09.294Z,75.67
2016-05-05T01:56:09.495Z,75.13
2016-05-05T01:57:09.339Z,75.86
2016-05-05T01:58:09.498Z,75.76
2016-05-05T01:59:09.485Z,76.06
2016-05-05T02:00:09.331Z,75.57
2016-05-05T02:01:09.506Z,76.09
2016-05-05T02:02:09.504Z,76.15
2016-05-05T02:03:09.497Z,76.06
2016-05-05T02:04:09.473Z,75.96
2016-05-05T02:05:09.311Z,75.48
2016-05-05T02:06:09.475Z,75.76
2016-05-05T02:07:09.450Z,76.06
2016-05-05T02:08:09.424Z,75.57
2016-05-05T02:09:09.366Z,75.67
2016-05-05T02:10:09.417Z,75.03
2016-05-05T02:11:09.390Z,74.84
2016-05-05T02:12:09.379Z,74.84
2016-05-05T02:13:09.383Z,74.55
2016-05-05T02:14:09.354Z,74.26
2016-05-05T02:15:09.343Z,75.03
2016-05-05T02:16:09.345Z,75.32
2016-05-05T02:17:09.318Z,75.13
2016-05-05T02:18:09.305Z,75.03
2016-05-05T02:19:09.293Z,74.55
2016-05-05T02:20:09.280Z,74.55
2016-05-05T02:21:09.252Z,74.93
2016-05-05T02:22:09.240Z,75.42
2016-05-05T02:23:09.072Z,75.42
2016-05-05T02:24:09.215Z,75.38
2016-05-05T02:25:09.046Z,76.15
2016-05-05T02:26:09.173Z,76.73
2016-05-05T02:27:09.020Z,77.11
2016-05-05T02:28:09.163Z,77.11
2016-05-05T02:29:09.151Z,77.31
2016-05-05T02:30:09.123Z,77.75
2016-05-05T02:31:09.109Z,76.92
2016-05-05T02:32:09.112Z,77.01
2016-05-05T02:33:09.083Z,77.59
2016-05-05T02:34:09.070Z,77.4
2016-05-05T02:35:09.057Z,77.78
2016-05-05T02:36:09.044Z,77.59
2016-05-05T02:37:08.875Z,77.11
2016-05-05T02:38:09.019Z,77.21
2016-05-05T02:39:09.459Z,76.53
2016-05-05T02:40:08.978Z,76.82
2016-05-05T02:41:08.964Z,76.82
2016-05-05T02:42:08.951Z,77.01
2016-05-05T02:43:08.782Z,77.11
2016-05-05T02:44:08.926Z,77.11
2016-05-05T02:45:08.913Z,76.34
2016-05-05T02:46:08.899Z,76.82
2016-05-05T02:47:08.730Z,76.82
2016-05-05T02:48:08.702Z,77.31
2016-05-05T02:49:08.860Z,77.21
2016-05-05T02:50:08.833Z,76.73
2016-05-05T02:51:08.819Z,77.15
2016-05-05T02:52:08.807Z,76.53
2016-05-05T02:53:08.793Z,76.34
2016-05-05T02:54:08.780Z,76.18
2016-05-05T02:55:08.752Z,75.61
2016-05-05T02:56:08.755Z,75.03
2016-05-05T02:57:08.726Z,75.61
2016-05-05T02:58:08.729Z,75.51
2016-05-05T02:59:08.716Z,75.51
2016-05-05T03:00:08.704Z,73.97
2016-05-05T03:01:08.518Z,73.68
2016-05-05T03:02:08.662Z,74.16
2016-05-05T03:03:08.648Z,74.36
2016-05-05T03:04:08.635Z,74.16
2016-05-05T03:05:08.607Z,73.68
2016-05-05T03:06:08.609Z,73.33
2016-05-05T03:07:08.581Z,73.3
2016-05-05T03:08:08.584Z,73.62
2016-05-05T03:09:08.931Z,73.24
2016-05-05T03:10:08.542Z,73.14
2016-05-05T03:11:08.513Z,72.85
2016-05-05T03:12:08.500Z,72.47
2016-05-05T03:13:08.347Z,72.85
2016-05-05T03:14:08.475Z,73.43
2016-05-05T03:15:08.305Z,73.62
2016-05-05T03:16:08.449Z,73.24
2016-05-05T03:17:08.452Z,73.62
2016-05-05T03:18:08.283Z,73.53
2016-05-05T03:19:08.411Z,73.82
2016-05-05T03:20:08.397Z,73.82
2016-05-05T03:21:08.399Z,74.01
2016-05-05T03:22:08.355Z,74.65
2016-05-05T03:23:08.343Z,75.03
2016-05-05T03:24:08.189Z,75.13
2016-05-05T03:25:08.333Z,75.03
2016-05-05T03:26:08.304Z,74.55
2016-05-05T03:27:08.307Z,74.93
2016-05-05T03:28:08.278Z,74.74
2016-05-05T03:29:08.266Z,74.84
2016-05-05T03:30:08.252Z,74.55
2016-05-05T03:31:08.239Z,74.55
2016-05-05T03:32:08.210Z,75.03
2016-05-05T03:33:08.213Z,74.74
2016-05-05T03:34:08.185Z,74.45
2016-05-05T03:35:08.173Z,74.65
2016-05-05T03:36:08.175Z,74.65
2016-05-05T03:37:08.146Z,74.55
2016-05-05T03:38:08.134Z,74.93
2016-05-05T03:39:09.339Z,75.13
2016-05-05T03:40:08.107Z,74.74
2016-05-05T03:41:08.094Z,74.55
2016-05-05T03:42:08.066Z,75.03
2016-05-05T03:43:07.897Z,75.23
2016-05-05T03:44:08.040Z,75.23
2016-05-05T03:45:08.011Z,75.03
2016-05-05T03:46:08.014Z,74.45
2016-05-05T03:47:08.001Z,74.45
2016-05-05T03:48:07.989Z,74.84
2016-05-05T03:49:07.960Z,75.61
2016-05-05T03:50:07.962Z,76.38
2016-05-05T03:51:07.933Z,75.96
2016-05-05T03:52:07.921Z,75.96
2016-05-05T03:53:07.766Z,76.18
2016-05-05T03:54:07.785Z,76.06
2016-05-05T03:55:07.882Z,76.73
2016-05-05T03:56:07.869Z,78.17
2016-05-05T03:57:07.857Z,77.84
2016-05-05T03:58:07.843Z,77.46
2016-05-05T03:59:07.674Z,76.92
2016-05-05T04:00:07.801Z,77.5
2016-05-05T04:01:07.804Z,77.46
2016-05-05T04:02:07.791Z,78.03
2016-05-05T04:03:07.622Z,78.23
2016-05-05T04:04:07.750Z,78.13
2016-05-05T04:05:07.737Z,78.03
2016-05-05T04:06:07.724Z,77.65
2016-05-05T04:07:07.712Z,79.19
2016-05-05T04:08:07.542Z,78.77
2016-05-05T04:09:07.685Z,79.1
2016-05-05T04:10:07.656Z,79.1
2016-05-05T04:11:07.644Z,78.9
2016-05-05T04:12:07.631Z,78.03
2016-05-05T04:13:07.618Z,77.94
2016-05-05T04:14:07.605Z,79.28
2016-05-05T04:15:07.436Z,80.88
2016-05-05T04:16:07.579Z,80.65
2016-05-05T04:17:07.567Z,81.04
2016-05-05T04:18:07.538Z,80.79
2016-05-05T04:19:07.541Z,79.92
2016-05-05T04:20:07.527Z,79.92
2016-05-05T04:21:07.496Z,79.53
2016-05-05T04:22:07.467Z,79.44
2016-05-05T04:23:07.470Z,78.9
2016-05-05T04:24:07.850Z,80.02
2016-05-05T04:25:07.429Z,80.79
2016-05-05T04:26:07.416Z,80.4
2016-05-05T04:27:07.247Z,81.17
2016-05-05T04:28:07.234Z,81.46
2016-05-05T04:29:07.221Z,80.88
2016-05-05T04:30:07.208Z,80.79
2016-05-05T04:31:07.179Z,81.75
2016-05-05T04:32:07.323Z,82.04
2016-05-05T04:33:07.310Z,80.98
2016-05-05T04:34:07.296Z,81.17
2016-05-05T04:35:07.299Z,81.07
2016-05-05T04:36:07.270Z,82.61
2016-05-05T04:37:07.102Z,82.04
2016-05-05T04:38:07.229Z,83
2016-05-05T04:39:07.217Z,82.52
2016-05-05T04:40:07.204Z,83.29
2016-05-05T04:41:07.190Z,82.81
2016-05-05T04:42:07.178Z,83
2016-05-05T04:43:07.009Z,83.19
2016-05-05T04:44:07.136Z,84.34
2016-05-05T04:45:07.123Z,84.4
2016-05-05T04:46:07.111Z,84.21
2016-05-05T04:47:06.942Z,83.63
2016-05-05T04:48:06.928Z,83.73
2016-05-05T04:49:07.055Z,82.96
2016-05-05T04:50:07.059Z,83.86
2016-05-05T04:51:06.874Z,83.73
2016-05-05T04:52:07.017Z,83.53
2016-05-05T04:53:07.004Z,84.59
2016-05-05T04:54:07.008Z,83.25
2016-05-05T04:55:06.963Z,83.92
2016-05-05T04:56:06.965Z,83.06
2016-05-05T04:57:06.937Z,83
2016-05-05T04:58:06.939Z,83.96
2016-05-05T04:59:06.910Z,84.16
2016-05-05T05:00:06.899Z,84.16
2016-05-05T05:01:06.885Z,83.83
2016-05-05T05:02:06.857Z,83.44
2016-05-05T05:03:06.844Z,84.3
2016-05-05T05:04:06.830Z,83.96
2016-05-05T05:05:06.817Z,83.77
2016-05-05T05:06:06.789Z,83.67
2016-05-05T05:07:06.793Z,84.34
2016-05-05T05:08:06.779Z,83.63
2016-05-05T05:09:06.751Z,82.96
2016-05-05T05:10:06.737Z,82.42
2016-05-05T05:11:06.709Z,82.42
2016-05-05T05:12:06.711Z,82.23
2016-05-05T05:13:06.684Z,82.14
2016-05-05T05:14:06.670Z,82.23
2016-05-05T05:15:06.657Z,82.32
2016-05-05T05:16:06.645Z,81.75
2016-05-05T05:17:06.631Z,82.23
2016-05-05T05:18:06.602Z,82.42
2016-05-05T05:19:06.605Z,82.23
2016-05-05T05:20:06.577Z,81.65
2016-05-05T05:21:06.564Z,82.61
2016-05-05T05:22:06.551Z,82.23
2016-05-05T05:23:06.538Z,81.75
2016-05-05T05:24:06.525Z,81.94
2016-05-05T05:25:06.512Z,82.42
2016-05-05T05:26:06.483Z,83.09
2016-05-05T05:27:06.471Z,82.42
2016-05-05T05:28:06.473Z,82.42
2016-05-05T05:29:06.444Z,82.23
2016-05-05T05:30:06.432Z,82.42
2016-05-05T05:31:06.419Z,82.71
2016-05-05T05:32:06.390Z,81.94
2016-05-05T05:33:06.377Z,81.56
2016-05-05T05:34:06.380Z,81.56
2016-05-05T05:35:06.351Z,81.75
2016-05-05T05:36:06.323Z,81.84
2016-05-05T05:37:06.310Z,82.52
2016-05-05T05:38:06.312Z,81.94
2016-05-05T05:39:06.128Z,82.71
2016-05-05T05:40:06.271Z,81.65
2016-05-05T05:41:06.259Z,80.79
2016-05-05T05:42:06.245Z,81.56
2016-05-05T05:43:06.217Z,81.46
2016-05-05T05:44:06.219Z,81.65
2016-05-05T05:45:06.190Z,81.56
2016-05-05T05:46:06.193Z,81.12
2016-05-05T05:47:06.165Z,81.27
2016-05-05T05:48:06.136Z,80.6
2016-05-05T05:49:06.139Z,81.17
2016-05-05T05:50:05.954Z,81.17
2016-05-05T05:51:06.097Z,81.27
2016-05-05T05:52:06.100Z,81.17
2016-05-05T05:53:06.072Z,80.88
2016-05-05T05:54:06.496Z,80.69
2016-05-05T05:55:05.889Z,80.6
2016-05-05T05:56:06.033Z,81.12
2016-05-05T05:57:06.019Z,81.17
2016-05-05T05:58:05.991Z,81.65
2016-05-05T05:59:05.978Z,81.65
2016-05-05T06:00:05.966Z,81.65
2016-05-05T06:01:05.968Z,82.14
2016-05-05T06:02:05.940Z,81.56
2016-05-05T06:03:05.910Z,81.75
2016-05-05T06:04:05.898Z,81.94
2016-05-05T06:05:05.744Z,81.84
2016-05-05T06:06:05.872Z,82.04
2016-05-05T06:07:05.860Z,82.23
2016-05-05T06:08:05.846Z,81.98
2016-05-05T06:09:05.661Z,83.09
2016-05-05T06:10:05.664Z,83
2016-05-05T06:11:05.793Z,82.52
2016-05-05T06:12:05.779Z,83.09
2016-05-05T06:13:05.765Z,82.94
2016-05-05T06:14:05.597Z,83.39
2016-05-05T06:15:05.740Z,83.77
2016-05-05T06:16:05.711Z,84.06
2016-05-05T06:17:05.698Z,84.34
2016-05-05T06:18:05.545Z,83.33
2016-05-05T06:19:05.672Z,83.39
2016-05-05T06:20:05.659Z,83.39
2016-05-05T06:21:05.647Z,82.37
2016-05-05T06:22:05.478Z,81.88
2016-05-05T06:23:05.615Z,83.29
2016-05-05T06:24:07.258Z,83.29
2016-05-05T06:25:05.574Z,83.39
2016-05-05T06:26:05.560Z,83.33
2016-05-05T06:27:05.549Z,81.94
2016-05-05T06:28:05.535Z,81.94
2016-05-05T06:29:05.365Z,82.81
2016-05-05T06:30:05.493Z,82.81
2016-05-05T06:31:05.480Z,81.94
2016-05-05T06:32:05.468Z,81.46
2016-05-05T06:33:05.440Z,81.65
2016-05-05T06:34:05.285Z,81.17
2016-05-05T06:35:05.429Z,81.02
2016-05-05T06:36:05.400Z,81.12
2016-05-05T06:37:05.387Z,81.88
2016-05-05T06:38:05.218Z,80.88
2016-05-05T06:39:05.376Z,80.25
2016-05-05T06:40:05.348Z,80.63
2016-05-05T06:41:05.179Z,80.25
2016-05-05T06:42:05.322Z,80.15
2016-05-05T06:43:05.310Z,79.96
2016-05-05T06:44:05.297Z,80
2016-05-05T06:45:05.268Z,80.58
2016-05-05T06:46:05.255Z,79.9
2016-05-05T06:47:05.242Z,79.43
2016-05-05T06:48:05.230Z,80.19
2016-05-05T06:49:05.216Z,79.81
2016-05-05T06:50:05.203Z,80.19
2016-05-05T06:51:05.191Z,80.19
2016-05-05T06:52:05.161Z,80.96
2016-05-05T06:53:05.149Z,80.96
2016-05-05T06:54:04.996Z,80.87
2016-05-05T06:55:05.124Z,81.16
2016-05-05T06:56:05.110Z,81.45
2016-05-05T06:57:05.097Z,81.54
2016-05-05T06:58:05.069Z,81.73
2016-05-05T06:59:05.055Z,81.63
2016-05-05T07:00:04.887Z,81.73
2016-05-05T07:01:05.029Z,81.83
2016-05-05T07:02:05.002Z,81.83
2016-05-05T07:03:05.004Z,81.63
2016-05-05T07:04:04.835Z,80.96
2016-05-05T07:05:04.963Z,80.96
2016-05-05T07:06:04.966Z,80.58
2016-05-05T07:07:04.952Z,80.48
2016-05-05T07:08:04.940Z,80.58
2016-05-05T07:09:04.911Z,80.58
2016-05-05T07:10:04.898Z,80.96
2016-05-05T07:11:04.870Z,81.06
2016-05-05T07:12:04.872Z,81.06
2016-05-05T07:13:04.843Z,80.87
2016-05-05T07:14:04.831Z,81.63
2016-05-05T07:15:04.818Z,81.35
2016-05-05T07:16:04.648Z,80.96
2016-05-05T07:17:04.791Z,81.35
2016-05-05T07:18:04.764Z,80.96
2016-05-05T07:19:04.750Z,81.35
2016-05-05T07:20:04.737Z,81.73
2016-05-05T07:21:04.724Z,81.83
2016-05-05T07:22:04.711Z,82.02
2016-05-05T07:23:04.699Z,81.83
2016-05-05T07:24:04.685Z,81.93
2016-05-05T07:25:04.657Z,82.5
2016-05-05T07:26:04.503Z,82.6
2016-05-05T07:27:04.647Z,81.93
2016-05-05T07:28:04.477Z,82.41
2016-05-05T07:29:04.605Z,82.31
2016-05-05T07:30:04.593Z,82.41
2016-05-05T07:31:04.580Z,82.7
2016-05-05T07:32:04.566Z,83.04
2016-05-05T07:33:04.554Z,82.17
2016-05-05T07:34:04.541Z,82.79
2016-05-05T07:35:04.512Z,82.17
2016-05-05T07:36:04.499Z,82.98
2016-05-05T07:37:04.487Z,82.85
2016-05-05T07:38:04.473Z,83.23
2016-05-05T07:39:04.460Z,82.75
2016-05-05T07:40:04.431Z,82.37
2016-05-05T07:41:04.279Z,82.56
2016-05-05T07:42:04.406Z,82.46
2016-05-05T07:43:04.392Z,83.04
2016-05-05T07:44:04.396Z,83.04
2016-05-05T07:45:04.367Z,83.33
2016-05-05T07:46:04.370Z,83.72
2016-05-05T07:47:04.341Z,83.14
2016-05-05T07:48:04.312Z,82.94
2016-05-05T07:49:04.300Z,83
2016-05-05T07:50:04.302Z,82.85
2016-05-05T07:51:04.275Z,82.56
2016-05-05T07:52:04.261Z,82.75
2016-05-05T07:53:04.233Z,83.04
2016-05-05T07:54:04.078Z,81.88
2016-05-05T07:55:04.066Z,82.08
2016-05-05T07:56:04.052Z,81.79
2016-05-05T07:57:04.180Z,80.44
2016-05-05T07:58:04.168Z,80.83
2016-05-05T07:59:04.155Z,81.07
2016-05-05T08:00:04.142Z,80.25
2016-05-05T08:01:04.144Z,80.3
2016-05-05T08:02:04.100Z,81.07
2016-05-05T08:03:04.087Z,80.6
2016-05-05T08:04:04.074Z,80.5
2016-05-05T08:05:04.062Z,80.4
2016-05-05T08:06:04.049Z,80.02
2016-05-05T08:07:04.021Z,80.98
2016-05-05T08:08:04.023Z,80.65
2016-05-05T08:09:04.009Z,80.55
2016-05-05T08:10:03.826Z,81.61
2016-05-05T08:11:03.968Z,80.55
2016-05-05T08:12:03.815Z,80.75
2016-05-05T08:13:03.942Z,80.75
2016-05-05T08:14:03.929Z,80.84
2016-05-05T08:15:03.901Z,81.71
2016-05-05T08:16:03.888Z,81.9
2016-05-05T08:17:03.875Z,82.48
2016-05-05T08:18:03.861Z,83.11
2016-05-05T08:19:03.678Z,82.34
2016-05-05T08:20:03.820Z,81.71
2016-05-05T08:21:03.808Z,81.76
2016-05-05T08:22:03.795Z,82.63
2016-05-05T08:23:03.767Z,83.74
2016-05-05T08:24:03.769Z,83.45
2016-05-05T08:25:03.897Z,82.49
2016-05-05T08:26:03.727Z,83.07
2016-05-05T08:27:03.714Z,83.45
2016-05-05T08:28:03.702Z,82.78
2016-05-05T08:29:03.673Z,83.26
2016-05-05T08:30:03.660Z,83.74
2016-05-05T08:31:03.647Z,83.26
2016-05-05T08:32:03.635Z,83.26
2016-05-05T08:33:03.621Z,82.49
2016-05-05T08:34:03.593Z,83.74
2016-05-05T08:35:03.580Z,83.74
2016-05-05T08:36:03.566Z,83.93
2016-05-05T08:37:03.538Z,83.07
2016-05-05T08:38:03.369Z,82.97
2016-05-05T08:39:03.528Z,83.26
2016-05-05T08:40:03.515Z,83.07
2016-05-05T08:41:03.486Z,82.1
2016-05-05T08:42:03.582Z,82.78
2016-05-05T08:43:03.445Z,83.64
2016-05-05T08:44:03.448Z,83.45
2016-05-05T08:45:03.419Z,84.41
2016-05-05T08:46:03.407Z,83.93
2016-05-05T08:47:03.253Z,83.45
2016-05-05T08:48:03.380Z,83.36
2016-05-05T08:49:03.351Z,82.68
2016-05-05T08:50:03.339Z,83.36
2016-05-05T08:51:03.326Z,82.59
2016-05-05T08:52:03.313Z,83.64
2016-05-05T08:53:03.300Z,82.4
2016-05-05T08:54:03.272Z,82.1
2016-05-05T08:55:03.102Z,82.78
2016-05-05T08:56:03.245Z,82.49
2016-05-05T08:57:03.077Z,82.4
2016-05-05T08:58:03.205Z,82.68
2016-05-05T08:59:03.207Z,82.1
2016-05-05T09:00:03.177Z,82.59
2016-05-05T09:01:03.166Z,82.87
2016-05-05T09:02:02.981Z,84.41
2016-05-05T09:03:03.138Z,84.95
2016-05-05T09:04:03.127Z,83.41
2016-05-05T09:05:03.098Z,84.37
2016-05-05T09:06:03.085Z,84.27
2016-05-05T09:07:03.071Z,83.36
2016-05-05T09:08:02.887Z,83.26
2016-05-05T09:09:03.030Z,84.31
2016-05-05T09:10:02.862Z,83.54
2016-05-05T09:11:02.989Z,82.3
2016-05-05T09:12:02.976Z,82.87
2016-05-05T09:13:02.963Z,83.16
2016-05-05T09:14:02.935Z,82.1
2016-05-05T09:15:02.953Z,83.03
2016-05-05T09:16:02.909Z,82.35
2016-05-05T09:17:02.896Z,82.35
2016-05-05T09:18:02.884Z,81.49
2016-05-05T09:19:02.853Z,81.72
2016-05-05T09:20:02.842Z,80.73
2016-05-05T09:21:02.828Z,81.53
2016-05-05T09:22:02.831Z,81.1
2016-05-05T09:23:02.818Z,81.43
2016-05-05T09:24:02.789Z,80.57
2016-05-05T09:25:02.886Z,80.86
2016-05-05T09:26:02.779Z,81.82
2016-05-05T09:27:02.783Z,80.19
2016-05-05T09:28:02.769Z,80.09
2016-05-05T09:29:02.694Z,81.43
2016-05-05T09:30:02.792Z,80.96
2016-05-05T09:31:02.690Z,81.43
2016-05-05T09:32:02.661Z,81.82
2016-05-05T09:33:02.756Z,80.86
2016-05-05T09:34:02.606Z,81.05
2016-05-05T09:35:02.421Z,81.24
2016-05-05T09:36:02.580Z,81.92
2016-05-05T09:37:02.552Z,81.15
2016-05-05T09:38:02.538Z,81.72
2016-05-05T09:39:02.524Z,81.92
2016-05-05T09:40:02.341Z,80.57
2016-05-05T09:41:02.484Z,82.3
2016-05-05T09:42:02.471Z,82.1
2016-05-05T09:43:02.499Z,81.63
2016-05-05T09:44:02.471Z,82.3
2016-05-05T09:45:02.442Z,82.59
2016-05-05T09:46:02.428Z,81.72
2016-05-05T09:47:02.385Z,81.72
2016-05-05T09:48:02.934Z,83.07
2016-05-05T09:49:02.359Z,82.68
2016-05-05T09:50:02.331Z,82.3
2016-05-05T09:51:02.348Z,81.72
2016-05-05T09:52:02.367Z,81.63
2016-05-05T09:53:02.292Z,80.76
2016-05-05T09:54:02.263Z,81.43
2016-05-05T09:55:02.266Z,81.24
2016-05-05T09:56:02.237Z,81.63
2016-05-05T09:57:02.068Z,82.01
2016-05-05T09:58:02.211Z,81.72
2016-05-05T09:59:02.199Z,81.63
2016-05-05T10:00:02.201Z,82.1
2016-05-05T10:01:02.000Z,82.1
2016-05-05T10:02:02.144Z,82.54
2016-05-05T10:03:02.130Z,83.07
2016-05-05T10:04:02.102Z,82.97
2016-05-05T10:05:02.089Z,83.22
2016-05-05T10:06:02.076Z,83.51
2016-05-05T10:07:02.063Z,83.89
2016-05-05T10:08:01.910Z,84.89
2016-05-05T10:09:01.865Z,84.41
2016-05-05T10:10:02.009Z,84.8
2016-05-05T10:11:02.012Z,84.75
2016-05-05T10:12:01.983Z,85.91
2016-05-05T10:13:01.955Z,85.62
2016-05-05T10:14:01.942Z,85.24
2016-05-05T10:15:01.928Z,86.29
2016-05-05T10:16:01.916Z,86.19
2016-05-05T10:17:01.887Z,85.52
2016-05-05T10:18:01.874Z,86.68
2016-05-05T10:19:01.862Z,87.25
2016-05-05T10:20:02.020Z,86.58
2016-05-05T10:21:01.819Z,86.58
2016-05-05T10:22:01.807Z,86.58
2016-05-05T10:23:01.825Z,87.54
2016-05-05T10:24:01.781Z,86.19
2016-05-05T10:25:01.955Z,86.19
2016-05-05T10:26:01.739Z,85.62
2016-05-05T10:27:01.727Z,86.15
2016-05-05T10:28:01.698Z,86.82
2016-05-05T10:29:01.700Z,86.92
2016-05-05T10:30:01.672Z,87.21
2016-05-05T10:31:01.659Z,87.11
2016-05-05T10:32:01.662Z,86.72
2016-05-05T10:33:01.619Z,87.11
2016-05-05T10:34:01.636Z,87.59
2016-05-05T10:35:01.592Z,87.78
2016-05-05T10:36:01.563Z,87.98
2016-05-05T10:37:01.551Z,88.35
2016-05-05T10:38:01.538Z,89.03
2016-05-05T10:39:01.571Z,89.7
2016-05-05T10:40:03.105Z,89.7
2016-05-05T10:41:01.498Z,89.51
2016-05-05T10:42:01.329Z,90.75
2016-05-05T10:43:01.457Z,90.95
2016-05-05T10:44:01.460Z,90.85
2016-05-05T10:45:01.478Z,90.75
2016-05-05T10:46:01.403Z,90.08
2016-05-05T10:47:01.328Z,89.61
2016-05-05T10:48:01.377Z,90.13
2016-05-05T10:49:01.286Z,90.66
2016-05-05T10:50:01.336Z,90.32
2016-05-05T10:51:01.369Z,89.99
2016-05-05T10:52:01.309Z,89.22
2016-05-05T10:53:01.281Z,90.66
2016-05-05T10:54:01.283Z,90.47
2016-05-05T10:55:01.255Z,90.99
2016-05-05T10:56:01.273Z,89.84
2016-05-05T10:57:01.230Z,90.03
2016-05-05T10:58:01.200Z,90.95
2016-05-05T10:59:01.220Z,89.89
2016-05-05T11:00:01.250Z,89.17
2016-05-05T11:01:01.265Z,88.79
2016-05-05T11:02:01.296Z,88.4
2016-05-05T11:03:01.608Z,88.35
2016-05-05T11:04:01.337Z,88.98
2016-05-05T11:05:01.340Z,88.59
2016-05-05T11:06:01.327Z,89.12
2016-05-05T11:07:01.315Z,88.55
2016-05-05T11:08:01.177Z,89.94
2016-05-05T11:09:01.157Z,90.52
2016-05-05T11:10:01.306Z,89.61
2016-05-05T11:11:01.298Z,89.84
2016-05-05T11:12:01.275Z,90.61
2016-05-05T11:13:01.127Z,90.22
2016-05-05T11:14:01.272Z,89.46
2016-05-05T11:15:01.262Z,89.89
2016-05-05T11:16:01.266Z,88.84
2016-05-05T11:17:01.208Z,88.45
2016-05-05T11:18:01.040Z,88.55
2016-05-05T11:19:01.045Z,89.03
2016-05-05T11:20:01.173Z,88.93
2016-05-05T11:21:01.161Z,88.26
2016-05-05T11:22:00.977Z,88.79
2016-05-05T11:23:01.121Z,88.69
2016-05-05T11:24:01.105Z,89.46
2016-05-05T11:25:01.155Z,89.94
2016-05-05T11:26:01.065Z,89.55
2016-05-05T11:27:01.052Z,89.99
2016-05-05T11:28:01.024Z,89.36
2016-05-05T11:29:00.870Z,89.84
2016-05-05T11:30:01.014Z,88.98
2016-05-05T11:31:00.985Z,89.36
2016-05-05T11:32:00.973Z,88.49
2016-05-05T11:33:00.961Z,88.79
2016-05-05T11:34:00.947Z,89.07
2016-05-05T11:35:00.918Z,88.31
2016-05-05T11:36:00.921Z,88.88
2016-05-05T11:37:00.908Z,89.22
2016-05-05T11:38:00.863Z,88.54
2016-05-05T11:39:00.866Z,88.35
2016-05-05T11:40:00.901Z,88.35
2016-05-05T11:41:00.857Z,87.68
2016-05-05T11:42:00.813Z,87.58
2016-05-05T11:43:00.799Z,88.16
2016-05-05T11:44:00.615Z,88.73
2016-05-05T11:45:00.757Z,89.79
2016-05-05T11:46:00.589Z,88.64
2016-05-05T11:47:00.732Z,88.35
2016-05-05T11:48:00.704Z,88.54
2016-05-05T11:49:00.721Z,87.68
2016-05-05T11:50:00.677Z,87.96
2016-05-05T11:51:00.696Z,89.79
2016-05-05T11:52:00.636Z,89.69
2016-05-05T11:53:00.639Z,88.54
2016-05-05T11:54:00.626Z,88.73
2016-05-05T11:55:00.613Z,88.83
2016-05-05T11:56:00.585Z,88.83
2016-05-05T11:57:00.415Z,88.35
2016-05-05T11:58:00.387Z,87.49
2016-05-05T11:59:00.530Z,86.28
2016-05-05T12:00:00.517Z,87.43
2016-05-05T12:01:00.535Z,87.1
2016-05-05T12:02:00.522Z,87.1
2016-05-05T12:03:00.462Z,87.77
2016-05-05T12:04:00.450Z,87.87
2016-05-05T12:05:00.281Z,87.87
2016-05-05T12:06:00.424Z,87.68
2016-05-05T12:07:00.411Z,87.39
2016-05-05T12:08:00.397Z,87.96
2016-05-05T12:09:00.369Z,87.96
2016-05-05T12:10:00.372Z,87.87
2016-05-05T12:11:00.359Z,87.77
2016-05-05T12:12:00.330Z,87.68
2016-05-05T12:13:00.318Z,87.77
2016-05-05T12:14:00.288Z,88.73
2016-05-05T12:15:00.276Z,88.06
2016-05-05T12:16:00.090Z,87.68
2016-05-05T12:17:00.250Z,87.58
2016-05-05T12:18:00.082Z,87.58
2016-05-05T12:19:00.224Z,86.81
2016-05-05T12:20:00.212Z,87.19
2016-05-05T12:21:00.260Z,86.81
2016-05-05T12:22:00.576Z,87.39
2016-05-05T12:23:00.172Z,87.01
2016-05-05T12:24:00.143Z,87.39
2016-05-05T12:25:00.116Z,87.29
2016-05-05T12:26:00.118Z,87.96
2016-05-05T12:27:00.840Z,87.68
2016-05-05T12:28:00.123Z,87.1
2016-05-05T12:28:59.892Z,87.19
2016-05-05T12:30:00.050Z,87.19
2016-05-05T12:31:00.023Z,87.1
2016-05-05T12:31:59.994Z,87.05
2016-05-05T12:32:59.996Z,85.95
2016-05-05T12:33:59.983Z,86.62
2016-05-05T12:34:59.955Z,86.24
2016-05-05T12:35:59.941Z,86.43
2016-05-05T12:36:59.928Z,86.91
2016-05-05T12:37:59.931Z,86.14
2016-05-05T12:38:59.903Z,87.1
2016-05-05T12:40:00.905Z,87.29
2016-05-05T12:40:59.877Z,87.39
2016-05-05T12:41:59.692Z,87.87
2016-05-05T12:42:59.819Z,87.87
2016-05-05T12:43:59.822Z,87.77
2016-05-05T12:44:59.810Z,87.68
2016-05-05T12:45:59.782Z,87.96
2016-05-05T12:46:59.784Z,87.19
2016-05-05T12:47:59.599Z,87.29
2016-05-05T12:48:59.743Z,87.29
2016-05-05T12:49:59.698Z,86.52
2016-05-05T12:50:59.701Z,86.81
2016-05-05T12:51:59.547Z,87.01
2016-05-05T12:52:59.675Z,86.72
2016-05-05T12:53:59.709Z,86.72
2016-05-05T12:54:59.977Z,86.62